European Highlander — C6SN6 — position and weather

sailwx.info

Track history (hours):
 
Tides and Currents Weather Stations Pressure Air Temp Water Temp Dewpoint Dewpoint Depression Visibility Wind Speed Wind Dir Waves Ship Positions

European Highlander

Operator: P&O Irish Sea Ltd

Last reported at 2018-May-28 00:53 UTC. Time now 2018-May-28 01:09 UTC.
Position N 54°58' W 005°01'.

Length 161 m; draft 5.4 m.

Type: Passenger vessel. MMSI: 311404000.

Date/timePositionNaut miles runAvg speedWind from/ knotsBaromVisibWave heightAir tempDewpointWater temp
2018-May-28 00:53N 54°58' W 005°01'510.2
2018-May-28 00:22N 55°02' W 005°07'720.3
2018-May-28 00:00N 54°59' W 005°19'1020.2
2018-May-27 23:31N 54°55' W 005°35'816.4
2018-May-27 23:01N 54°51' W 005°48'0 0.3
2018-May-27 22:30N 54°51' W 005°48'0 0.0
2018-May-27 22:00N 54°51' W 005°48'0 0.0
2018-May-27 21:30N 54°51' W 005°48'0 0.0
2018-May-27 21:00N 54°51' W 005°48'2 4.9
2018-May-27 20:30N 54°52' W 005°45'918.4
2018-May-27 20:00N 54°57' W 005°31'918.7
2018-May-27 19:30N 55°00' W 005°16'814.7
2018-May-27 19:00N 54°59' W 005°03'2 3.3
2018-May-27 18:29N 54°58' W 005°01'0 0.0
2018-May-27 17:53N 54°58' W 005°01'0 0.0
2018-May-27 17:30N 54°58' W 005°01'5 8.7
2018-May-27 16:55N 55°02' W 005°07'717.5
2018-May-27 16:30N 54°59' W 005°19'918.7
2018-May-27 16:00N 54°55' W 005°34'916.8
2018-May-27 15:28N 54°51' W 005°48'0 0.4
2018-May-27 14:57N 54°51' W 005°48'0 0.0
2018-May-27 14:27N 54°51' W 005°48'3 6.1
2018-May-27 14:00N 54°53' W 005°44'918.6
2018-May-27 13:30N 54°57' W 005°30'918.0
2018-May-27 13:00N 55°00' W 005°15'814.3
2018-May-27 12:29N 54°59' W 005°03'1 2.4
2018-May-27 11:53N 54°58' W 005°01'0 0.2
2018-May-27 11:30N 54°58' W 005°01'611.3
2018-May-27 11:00N 55°01' W 005°08'917.7
2018-May-27 10:30N 54°58' W 005°23'917.1
2018-May-27 10:00N 54°54' W 005°37'715.1
2018-May-27 09:30N 54°51' W 005°48'0 0.2
2018-May-27 08:55N 54°51' W 005°48'0 0.0
2018-May-27 08:23N 54°51' W 005°48'2 5.9
2018-May-27 08:00N 54°52' W 005°45'917.7
2018-May-27 07:30N 54°55' W 005°31'918.5
2018-May-27 07:00N 54°60' W 005°17'814.0
2018-May-27 06:26N 54°59' W 005°03'1 2.8
2018-May-27 05:54N 54°58' W 005°01'0 0.0
2018-May-27 05:21N 54°58' W 005°01'0 0.0
2018-May-27 05:00N 54°58' W 005°01'0 0.0
2018-May-27 04:30N 54°58' W 005°01'0 0.0
2018-May-27 04:00N 54°58' W 005°01'0 0.0
2018-May-27 03:27N 54°58' W 005°01'0 0.0
2018-May-27 03:00N 54°58' W 005°01'0 0.0
2018-May-27 02:30N 54°58' W 005°01'0 0.0
2018-May-27 02:00N 54°58' W 005°01'0 0.0
2018-May-27 01:24N 54°58' W 005°01'0 0.0
2018-May-27 01:00N 54°58' W 005°01'510.0
2018-May-27 00:30N 55°01' W 005°07'1019.7
2018-May-27 00:01N 54°58' W 005°22'1019.1
2018-May-26 23:30N 54°55' W 005°38'713.4
2018-May-26 23:00N 54°51' W 005°48'0 0.1
2018-May-26 22:28N 54°51' W 005°48'0 0.0
2018-May-26 21:58N 54°51' W 005°48'0 0.0
2018-May-26 21:28N 54°51' W 005°48'0 0.0
2018-May-26 20:58N 54°51' W 005°48'3 6.4
2018-May-26 20:30N 54°53' W 005°44'918.9
2018-May-26 20:00N 54°56' W 005°29'1019.3
2018-May-26 19:30N 55°01' W 005°13'713.4
2018-May-26 19:00N 54°59' W 005°02'1 0.9
2018-May-26 17:46N 54°58' W 005°01'0 0.0
2018-May-26 17:29N 54°58' W 005°01'510.6
2018-May-26 17:01N 55°02' W 005°07'917.5
2018-May-26 16:31N 54°58' W 005°21'919.0
2018-May-26 16:01N 54°54' W 005°36'815.0
2018-May-26 15:30N 54°51' W 005°48'0 0.1
2018-May-26 14:58N 54°51' W 005°48'0 0.0
2018-May-26 14:29N 54°51' W 005°48'510.1
2018-May-26 14:00N 54°53' W 005°41'918.3
2018-May-26 13:30N 54°57' W 005°26'918.0
2018-May-26 13:00N 55°01' W 005°12'714.0
2018-May-26 12:31N 54°58' W 005°01'0 0.2
2018-May-26 11:50N 54°58' W 005°01'0 0.0
2018-May-26 11:30N 54°58' W 005°01'5 9.5
2018-May-26 10:59N 55°02' W 005°06'1020.1
2018-May-26 10:30N 54°58' W 005°22'1019.8
2018-May-26 10:00N 54°54' W 005°38'713.4
2018-May-26 09:30N 54°51' W 005°48'0 0.0
2018-May-26 09:00N 54°51' W 005°48'0 0.0
2018-May-26 08:30N 54°51' W 005°48'3 6.6
2018-May-26 08:00N 54°53' W 005°43'918.0
2018-May-26 07:30N 54°56' W 005°29'918.3
2018-May-26 07:00N 55°01' W 005°15'714.4
2018-May-26 06:30N 54°59' W 005°03'2 1.5
2018-May-26 05:28N 54°58' W 005°01'0 0.1
2018-May-26 05:00N 54°58' W 005°01'611.3
2018-May-26 04:31N 55°01' W 005°08'917.1
2018-May-26 04:00N 54°58' W 005°22'918.1
2018-May-26 03:30N 54°54' W 005°36'714.9
2018-May-26 03:01N 54°51' W 005°48'0 0.2
2018-May-26 02:30N 54°51' W 005°48'0 0.0
2018-May-26 02:00N 54°51' W 005°48'0 0.0
2018-May-26 01:30N 54°51' W 005°48'0 0.0
2018-May-26 01:00N 54°51' W 005°48'3 6.8
2018-May-26 00:31N 54°53' W 005°43'918.7
2018-May-26 00:01N 54°57' W 005°29'917.7
2018-May-25 23:31N 55°01' W 005°15'714.1
2018-May-25 22:59N 54°59' W 005°02'1 0.7
2018-May-25 21:07N 54°58' W 005°01'0 0.3
2018-May-25 20:51N 54°58' W 005°01'612.7
2018-May-25 20:23N 55°01' W 005°09'717.4
2018-May-25 20:00N 54°58' W 005°19'917.4
2018-May-25 19:31N 54°54' W 005°33'917.7
2018-May-25 19:00N 54°51' W 005°48'1 1.0
2018-May-25 18:22N 54°51' W 005°48'0 0.0
2018-May-25 17:58N 54°51' W 005°48'0 0.0
2018-May-25 17:30N 54°51' W 005°48'5 9.7
2018-May-25 17:00N 54°54' W 005°41'1019.8
2018-May-25 16:30N 54°58' W 005°25'1020.5
2018-May-25 16:00N 55°01' W 005°09'611.6
2018-May-25 15:30N 54°58' W 005°01'0 0.0
2018-May-25 14:59N 54°58' W 005°01'0 0.0
2018-May-25 14:29N 54°58' W 005°01'5 8.0
2018-May-25 13:52N 55°02' W 005°06'718.9
2018-May-25 13:30N 54°59' W 005°18'1020.5
2018-May-25 13:00N 54°55' W 005°34'917.7
2018-May-25 12:30N 54°51' W 005°48'0 0.3
2018-May-25 12:00N 54°51' W 005°48'0 0.0
2018-May-25 11:30N 54°51' W 005°48'4 7.9
2018-May-25 11:01N 54°53' W 005°42'1020.8
2018-May-25 10:31N 54°58' W 005°26'1019.7
2018-May-25 10:00N 55°01' W 005°10'612.9
2018-May-25 09:30N 54°58' W 005°01'0 0.0
2018-May-25 08:55N 54°58' W 005°01'0 0.0
2018-May-25 08:29N 54°58' W 005°01'4 9.0
2018-May-25 08:00N 55°01' W 005°05'816.6
2018-May-25 07:30N 54°59' W 005°19'817.0
2018-May-25 07:00N 54°55' W 005°32'918.2
2018-May-25 06:30N 54°52' W 005°47'1 2.4
2018-May-25 05:58N 54°51' W 005°48'0 0.0
2018-May-25 05:28N 54°51' W 005°48'0 0.0
2018-May-25 04:59N 54°51' W 005°48'4 8.9
2018-May-25 04:30N 54°53' W 005°41'918.0
2018-May-25 04:00N 54°57' W 005°28'1018.8
2018-May-25 03:30N 55°01' W 005°13'713.4
2018-May-25 03:01N 54°59' W 005°02'1 2.3
2018-May-25 02:29N 54°58' W 005°01'0 0.0
2018-May-25 01:47N 54°58' W 005°01'0 0.0
2018-May-25 01:29N 54°58' W 005°01'0 0.0
2018-May-25 01:00N 54°58' W 005°01'5 9.7
2018-May-25 00:29N 55°02' W 005°07'917.8
2018-May-25 00:00N 54°58' W 005°20'918.0
2018-May-24 23:30N 54°55' W 005°35'816.4
2018-May-24 23:00N 54°51' W 005°48'0 0.3
2018-May-24 22:30N 54°51' W 005°48'0 0.0
2018-May-24 22:00N 54°51' W 005°48'0 0.0
2018-May-24 21:30N 54°51' W 005°48'0 0.0
2018-May-24 21:00N 54°51' W 005°48'2 4.0
2018-May-24 20:30N 54°52' W 005°46'918.7
2018-May-24 20:00N 54°56' W 005°31'918.6
2018-May-24 19:30N 55°00' W 005°16'814.6
2018-May-24 18:59N 54°59' W 005°03'2 3.8
2018-May-24 18:29N 54°58' W 005°01'0 0.0
2018-May-24 17:56N 54°58' W 005°01'0 0.0
2018-May-24 17:30N 54°58' W 005°01'5 9.1
2018-May-24 16:56N 55°02' W 005°07'819.0
2018-May-24 16:31N 54°58' W 005°20'1020.6
2018-May-24 16:01N 54°54' W 005°36'714.6
2018-May-24 15:30N 54°51' W 005°48'0 0.1
2018-May-24 14:59N 54°51' W 005°48'0 0.0
2018-May-24 14:30N 54°51' W 005°48'510.4
2018-May-24 14:00N 54°54' W 005°41'918.1
2018-May-24 13:30N 54°58' W 005°27'14 3.0
2018-May-24 08:53N 54°51' W 005°48'0 0.0
2018-May-24 08:26N 54°51' W 005°48'3 7.1
2018-May-24 08:00N 54°53' W 005°44'918.5
2018-May-24 07:30N 54°57' W 005°29'918.1
2018-May-24 07:00N 55°00' W 005°15'714.1
2018-May-24 06:29N 54°59' W 005°03'2 1.2
2018-May-24 05:16N 54°58' W 005°01'0 0.0
2018-May-24 04:59N 54°58' W 005°01'510.7
2018-May-24 04:30N 55°01' W 005°07'817.0
2018-May-24 04:00N 54°58' W 005°20'918.4
2018-May-24 03:30N 54°53' W 005°34'816.1
2018-May-24 03:01N 54°51' W 005°48'0 0.1
2018-May-24 02:19N 54°51' W 005°48'0 0.0
2018-May-24 01:58N 54°51' W 005°48'0 0.0
2018-May-24 01:25N 54°51' W 005°48'0 0.0
2018-May-24 00:59N 54°51' W 005°48'3 6.0
2018-May-24 00:30N 54°53' W 005°44'917.6
2018-May-24 00:00N 54°57' W 005°30'917.7
2018-May-23 23:30N 55°00' W 005°16'814.3
2018-May-23 22:57N 54°59' W 005°02'1 0.9
2018-May-23 21:19N 54°58' W 005°01'0 0.0
2018-May-23 21:00N 54°58' W 005°01'510.0
2018-May-23 20:30N 55°02' W 005°06'1019.8
2018-May-23 20:00N 54°58' W 005°22'1019.7
2018-May-23 19:30N 54°54' W 005°38'612.7
2018-May-23 19:00N 54°51' W 005°48'0 0.1
2018-May-23 18:28N 54°51' W 005°48'0 0.0
2018-May-23 17:55N 54°51' W 005°48'0 0.0
2018-May-23 17:30N 54°51' W 005°48'612.0
2018-May-23 17:00N 54°54' W 005°39'917.8
2018-May-23 16:30N 54°58' W 005°25'1019.0
2018-May-23 16:00N 55°01' W 005°09'6 8.9
2018-May-23 15:19N 54°58' W 005°01'0 0.0
2018-May-23 14:31N 54°58' W 005°01'0 0.0
2018-May-23 14:30N 54°58' W 005°01'5 9.1
2018-May-23 13:54N 55°01' W 005°08'819.2
2018-May-23 13:30N 54°58' W 005°20'918.4
2018-May-23 13:00N 54°55' W 005°34'816.8
2018-May-23 12:30N 54°51' W 005°48'0 0.3
2018-May-23 11:45N 54°51' W 005°48'0 0.0
2018-May-23 11:27N 54°51' W 005°48'3 7.2
2018-May-23 11:01N 54°53' W 005°43'918.4
2018-May-23 10:30N 54°57' W 005°29'918.0
2018-May-23 10:01N 55°01' W 005°15'713.9
2018-May-23 09:30N 54°59' W 005°03'2 1.3
2018-May-23 08:18N 54°58' W 005°01'411.5
2018-May-23 08:00N 55°01' W 005°04'816.7
2018-May-23 07:30N 54°59' W 005°18'917.8
2018-May-23 07:00N 54°55' W 005°32'917.6
2018-May-23 06:29N 54°52' W 005°47'1 1.9
2018-May-23 05:59N 54°51' W 005°48'0 0.0
2018-May-23 05:29N 54°51' W 005°48'0 0.0
2018-May-23 05:00N 54°51' W 005°48'5 9.7
2018-May-23 04:30N 54°53' W 005°41'918.5
2018-May-23 04:00N 54°58' W 005°26'918.8
2018-May-23 03:30N 55°01' W 005°11'713.6
2018-May-23 03:00N 54°58' W 005°01'0 0.0
2018-May-23 01:56N 54°58' W 005°01'0 0.0
2018-May-23 01:20N 54°58' W 005°01'0 0.0
2018-May-23 00:58N 54°58' W 005°01'510.5
2018-May-23 00:28N 55°01' W 005°08'817.9
2018-May-23 00:00N 54°58' W 005°20'918.6
2018-May-22 23:30N 54°54' W 005°35'815.9
2018-May-22 23:01N 54°51' W 005°48'0 0.2
2018-May-22 22:28N 54°51' W 005°48'0 0.0
2018-May-22 21:58N 54°51' W 005°48'0 0.0
2018-May-22 21:22N 54°51' W 005°48'0 0.0
2018-May-22 20:53N 54°51' W 005°48'410.4
2018-May-22 20:31N 54°53' W 005°42'919.0
2018-May-22 20:00N 54°58' W 005°28'918.3
2018-May-22 19:31N 55°01' W 005°13'612.7
2018-May-22 19:00N 54°59' W 005°02'1 2.3
2018-May-22 18:24N 54°58' W 005°01'0 0.0
2018-May-22 17:57N 54°58' W 005°01'0 0.0
2018-May-22 17:29N 54°58' W 005°01'5 9.8
2018-May-22 16:58N 55°02' W 005°07'919.7
2018-May-22 16:30N 54°58' W 005°21'1020.1
2018-May-22 16:00N 54°54' W 005°37'711.7
2018-May-22 15:26N 54°51' W 005°48'0 0.0
2018-May-22 15:00N 54°51' W 005°48'0 0.0
2018-May-22 14:30N 54°51' W 005°48'4 8.2
2018-May-22 14:00N 54°53' W 005°42'917.8
2018-May-22 13:30N 54°57' W 005°28'918.4
2018-May-22 13:00N 55°01' W 005°13'713.1
2018-May-22 12:30N 54°59' W 005°02'1 2.0
2018-May-22 11:53N 54°58' W 005°01'0 0.0
2018-May-22 11:30N 54°58' W 005°01'5 9.4
2018-May-22 10:57N 55°02' W 005°07'817.4
2018-May-22 10:30N 54°59' W 005°20'918.3
2018-May-22 10:00N 54°55' W 005°34'917.0
2018-May-22 09:30N 54°51' W 005°48'0 0.9
2018-May-22 09:00N 54°51' W 005°48'0 0.0
2018-May-22 08:30N 54°51' W 005°48'3 6.6
2018-May-22 08:00N 54°53' W 005°43'918.5
2018-May-22 07:30N 54°57' W 005°29'917.8
2018-May-22 07:00N 55°01' W 005°15'714.2
2018-May-22 06:29N 54°59' W 005°03'1 2.8
2018-May-22 05:59N 54°58' W 005°01'0 0.0
2018-May-22 05:17N 54°58' W 005°01'0 0.0
2018-May-22 05:00N 54°58' W 005°01'510.2
2018-May-22 04:29N 55°02' W 005°07'816.3
2018-May-22 04:00N 54°58' W 005°20'917.7
2018-May-22 03:30N 54°55' W 005°34'917.1
2018-May-22 03:00N 54°51' W 005°48'0 0.7
2018-May-22 02:29N 54°51' W 005°48'0 0.0
2018-May-22 01:59N 54°51' W 005°48'0 0.0
2018-May-22 01:29N 54°51' W 005°48'0 0.0
2018-May-22 01:00N 54°51' W 005°48'4 8.5
2018-May-22 00:30N 54°53' W 005°41'917.9
2018-May-22 00:00N 54°57' W 005°28'918.5
2018-May-21 23:30N 55°01' W 005°13'613.0
2018-May-21 23:00N 54°59' W 005°02'1 2.6
2018-May-21 22:30N 54°58' W 005°01'0 0.0
2018-May-21 21:51N 54°58' W 005°01'0 0.0
2018-May-21 21:12N 54°58' W 005°01'0 0.3
2018-May-21 21:00N 54°58' W 005°01'510.2
2018-May-21 20:30N 55°01' W 005°07'917.6
2018-May-21 20:00N 54°58' W 005°21'1117.6
2018-May-21 19:21N 54°54' W 005°40'515.3
2018-May-21 19:00N 54°51' W 005°48'0 0.3
2018-May-21 18:26N 54°51' W 005°48'0 0.0
2018-May-21 17:59N 54°51' W 005°48'0 0.0
2018-May-21 17:29N 54°51' W 005°48'3 7.2
2018-May-21 17:01N 54°53' W 005°43'918.5
2018-May-21 16:31N 54°57' W 005°29'918.1
2018-May-21 16:00N 55°01' W 005°14'714.0
2018-May-21 15:30N 54°59' W 005°03'1 2.1
2018-May-21 14:48N 54°58' W 005°01'0 0.1
2018-May-21 14:27N 54°58' W 005°01'612.4
2018-May-21 13:59N 55°02' W 005°08'1020.4
2018-May-21 13:30N 54°57' W 005°23'1121.7
2018-May-21 13:00N 54°53' W 005°41'5 9.2
2018-May-21 12:30N 54°51' W 005°48'0 0.0
2018-May-21 12:00N 54°51' W 005°48'0 0.0
2018-May-21 11:31N 54°51' W 005°48'611.3
2018-May-21 11:01N 54°54' W 005°40'917.8
2018-May-21 10:31N 54°58' W 005°26'918.2
2018-May-21 10:00N 55°03' W 005°12'714.8
2018-May-21 09:30N 54°58' W 005°02'1 1.2
2018-May-21 09:00N 54°58' W 005°01'0 0.0
2018-May-21 08:30N 54°58' W 005°01'5 8.7
2018-May-21 07:56N 55°02' W 005°06'817.8
2018-May-21 07:30N 54°59' W 005°19'917.9
2018-May-21 07:00N 54°56' W 005°33'917.5
2018-May-21 06:30N 54°52' W 005°47'1 2.0
2018-May-21 06:00N 54°51' W 005°48'0 0.0
2018-May-21 05:30N 54°51' W 005°48'0 0.0
2018-May-21 05:00N 54°51' W 005°48'5 8.2
2018-May-21 04:27N 54°54' W 005°42'818.3
2018-May-21 04:00N 54°57' W 005°29'917.9
2018-May-21 03:30N 55°01' W 005°15'714.2
2018-May-21 02:59N 54°59' W 005°02'1 0.7
2018-May-21 00:57N 54°58' W 005°01'510.6
2018-May-21 00:28N 55°01' W 005°07'817.3
2018-May-21 00:00N 54°58' W 005°20'918.8
2018-May-20 23:30N 54°54' W 005°34'816.6
2018-May-20 23:00N 54°51' W 005°48'0 0.2
2018-May-20 22:30N 54°51' W 005°48'0 0.0
2018-May-20 22:00N 54°51' W 005°48'0 0.0
2018-May-20 21:30N 54°51' W 005°48'0 0.0
2018-May-20 21:00N 54°51' W 005°48'3 5.3
2018-May-20 20:30N 54°53' W 005°44'918.3
2018-May-20 20:00N 54°57' W 005°30'917.6
2018-May-20 19:30N 55°00' W 005°16'814.8
2018-May-20 18:58N 54°59' W 005°03'1 2.5
2018-May-20 18:23N 54°58' W 005°01'0 0.0
2018-May-20 17:56N 54°58' W 005°01'0 0.0
2018-May-20 17:30N 54°58' W 005°01'510.6
2018-May-20 17:00N 55°02' W 005°07'1121.9
2018-May-20 16:30N 54°57' W 005°24'1121.2
2018-May-20 16:00N 54°53' W 005°41'4 8.3
2018-May-20 15:29N 54°51' W 005°48'0 0.0
2018-May-20 14:56N 54°51' W 005°48'0 0.0
2018-May-20 14:29N 54°51' W 005°48'3 6.0
2018-May-20 14:00N 54°53' W 005°44'918.1
2018-May-20 13:30N 54°57' W 005°30'918.1
2018-May-20 13:00N 55°00' W 005°16'813.9
2018-May-20 12:27N 54°59' W 005°03'1 3.0
2018-May-20 11:59N 54°58' W 005°01'0 0.0
2018-May-20 10:02N 54°58' W 005°01'0 0.0
2018-May-20 09:47N 54°58' W 005°01'0 0.0
2018-May-20 09:29N 54°58' W 005°01'0 0.0
2018-May-20 08:56N 54°58' W 005°01'0 0.0
2018-May-20 08:29N 54°58' W 005°01'510.1
2018-May-20 08:00N 55°02' W 005°06'919.2
2018-May-20 07:30N 54°58' W 005°21'1020.4
2018-May-20 07:00N 54°54' W 005°38'713.3
2018-May-20 06:30N 54°51' W 005°48'0 0.1
2018-May-20 06:00N 54°51' W 005°48'0 0.0
2018-May-20 05:30N 54°51' W 005°48'0 0.0
2018-May-20 04:57N 54°51' W 005°48'0 0.0
2018-May-20 04:30N 54°51' W 005°48'0 0.0
2018-May-20 04:00N 54°51' W 005°48'0 0.0
2018-May-20 03:30N 54°51' W 005°48'0 0.0
2018-May-20 03:00N 54°51' W 005°48'0 0.0
2018-May-20 02:30N 54°51' W 005°48'0 0.0
2018-May-20 02:00N 54°51' W 005°48'0 0.0
2018-May-20 01:30N 54°51' W 005°48'0 0.0
2018-May-20 01:00N 54°51' W 005°48'0 0.0
2018-May-20 00:30N 54°51' W 005°48'0 0.0
2018-May-20 00:00N 54°51' W 005°48'0 0.0
2018-May-19 23:27N 54°51' W 005°48'0 0.0
2018-May-19 23:00N 54°51' W 005°48'0 0.0
2018-May-19 22:30N 54°51' W 005°48'0 0.0
2018-May-19 22:00N 54°51' W 005°48'0 0.0
2018-May-19 21:30N 54°51' W 005°48'0 0.0
2018-May-19 20:57N 54°51' W 005°48'3 7.4
2018-May-19 20:30N 54°53' W 005°43'918.2
2018-May-19 20:00N 54°57' W 005°29'918.3
2018-May-19 19:30N 55°01' W 005°15'714.6
2018-May-19 19:00N 54°59' W 005°02'1 2.1
2018-May-19 18:24N 54°58' W 005°01'0 0.0
2018-May-19 18:00N 54°58' W 005°01'0 0.0
2018-May-19 17:30N 54°58' W 005°01'5 9.0
2018-May-19 16:57N 55°02' W 005°07'818.9
2018-May-19 16:30N 54°58' W 005°20'918.0
2018-May-19 16:00N 54°55' W 005°35'816.3
2018-May-19 15:30N 54°51' W 005°48'0 0.6
2018-May-19 14:59N 54°51' W 005°48'0 0.0
2018-May-19 14:30N 54°51' W 005°48'5 9.3
2018-May-19 14:00N 54°53' W 005°41'816.2
2018-May-19 13:30N 54°57' W 005°29'816.5
2018-May-19 13:00N 55°01' W 005°17'915.2
2018-May-19 12:25N 54°58' W 005°02'1 1.9
2018-May-19 11:55N 54°58' W 005°01'0 0.0
2018-May-19 11:30N 54°58' W 005°01'5 9.6
2018-May-19 11:00N 55°02' W 005°06'816.7
2018-May-19 10:31N 54°58' W 005°19'917.7
2018-May-19 10:00N 54°54' W 005°33'917.6
2018-May-19 09:30N 54°51' W 005°48'1 1.2
2018-May-19 09:01N 54°51' W 005°48'0 0.0
2018-May-19 08:30N 54°51' W 005°48'510.3
2018-May-19 08:00N 54°54' W 005°41'917.8
2018-May-19 07:30N 54°58' W 005°27'918.5
2018-May-19 07:00N 55°03' W 005°13'815.2
2018-May-19 06:30N 54°59' W 005°02'1 2.1
2018-May-19 06:00N 54°58' W 005°01'0 0.0
2018-May-19 05:28N 54°58' W 005°01'0 0.1
2018-May-19 05:00N 54°58' W 005°01'511.0
2018-May-19 04:30N 55°01' W 005°08'1019.2
2018-May-19 04:00N 54°58' W 005°23'918.4
2018-May-19 03:30N 54°53' W 005°37'713.2
2018-May-19 03:00N 54°51' W 005°48'0 0.1
2018-May-19 02:29N 54°51' W 005°48'0 0.0
2018-May-19 01:59N 54°51' W 005°48'0 0.0
2018-May-19 01:26N 54°51' W 005°48'0 0.0
2018-May-19 00:59N 54°51' W 005°48'4 9.0
2018-May-19 00:30N 54°53' W 005°42'918.8
2018-May-19 00:00N 54°57' W 005°27'1019.3
2018-May-18 23:30N 55°01' W 005°12'713.2
2018-May-18 23:01N 54°58' W 005°02'1 1.0
2018-May-18 22:27N 54°58' W 005°01'0 0.0
2018-May-18 21:51N 54°58' W 005°01'0 0.0
2018-May-18 21:21N 54°58' W 005°01'0 0.0
2018-May-18 21:00N 54°58' W 005°01'510.2
2018-May-18 20:30N 55°01' W 005°07'817.4
2018-May-18 20:01N 54°58' W 005°21'918.9
2018-May-18 19:31N 54°54' W 005°36'815.5
2018-May-18 19:01N 54°51' W 005°48'0 0.2
2018-May-18 18:30N 54°51' W 005°48'0 0.0
2018-May-18 18:00N 54°51' W 005°48'0 0.0
2018-May-18 17:30N 54°51' W 005°48'5 9.4
2018-May-18 17:00N 54°53' W 005°41'918.4
2018-May-18 16:31N 54°58' W 005°27'917.6
2018-May-18 16:00N 55°01' W 005°13'714.2
2018-May-18 15:31N 54°58' W 005°01'0 0.8
2018-May-18 14:59N 54°58' W 005°01'0 0.0
2018-May-18 14:29N 54°58' W 005°01'5 8.9
2018-May-18 13:55N 55°01' W 005°07'819.0
2018-May-18 13:30N 54°58' W 005°19'918.6
2018-May-18 13:00N 54°55' W 005°34'917.0
2018-May-18 12:30N 54°51' W 005°48'0 0.3
2018-May-18 11:58N 54°51' W 005°48'0 0.0
2018-May-18 11:29N 54°51' W 005°48'611.8
2018-May-18 11:01N 54°54' W 005°40'1020.7
2018-May-18 10:30N 54°58' W 005°23'1121.2
2018-May-18 10:01N 55°02' W 005°06'5 9.8
2018-May-18 09:30N 54°58' W 005°01'0 0.0
2018-May-18 08:57N 54°58' W 005°01'0 0.0
2018-May-18 08:30N 54°58' W 005°01'510.4
2018-May-18 07:59N 55°01' W 005°08'917.8
2018-May-18 07:30N 54°58' W 005°21'918.8
2018-May-18 07:00N 54°54' W 005°36'714.8
2018-May-18 06:31N 54°51' W 005°48'0 0.2
2018-May-18 06:00N 54°51' W 005°48'0 0.0
2018-May-18 05:30N 54°51' W 005°48'0 0.0
2018-May-18 05:00N 54°51' W 005°48'612.2
2018-May-18 04:31N 54°54' W 005°39'918.3
2018-May-18 04:00N 54°59' W 005°25'917.5
2018-May-18 03:31N 55°02' W 005°11'713.5
2018-May-18 03:00N 54°58' W 005°01'0 0.0
2018-May-18 02:30N 54°58' W 005°01'0 0.0
2018-May-18 02:00N 54°58' W 005°01'0 0.0
2018-May-18 01:25N 54°58' W 005°01'0 0.2
2018-May-18 01:00N 54°58' W 005°01'  
Track history (hours):
 
Tides and Currents Weather Stations Pressure Air Temp Water Temp Dewpoint Dewpoint Depression Visibility Wind Speed Wind Dir Waves Ship Positions

European Highlander

Operator: P&O Irish Sea Ltd

Last reported at 2018-May-28 00:53 UTC. Time now 2018-May-28 01:09 UTC.
Position N 54°58' W 005°01'.

Length 161 m; draft 5.4 m.

Type: Passenger vessel. MMSI: 311404000.

Date/timePositionNaut miles runAvg speedWind from/ knotsBaromVisibWave heightAir tempDewpointWater temp
2018-May-28 00:53N 54°58' W 005°01'510.2
2018-May-28 00:22N 55°02' W 005°07'720.3
2018-May-28 00:00N 54°59' W 005°19'1020.2
2018-May-27 23:31N 54°55' W 005°35'816.4
2018-May-27 23:01N 54°51' W 005°48'0 0.3
2018-May-27 22:30N 54°51' W 005°48'0 0.0
2018-May-27 22:00N 54°51' W 005°48'0 0.0
2018-May-27 21:30N 54°51' W 005°48'0 0.0
2018-May-27 21:00N 54°51' W 005°48'2 4.9
2018-May-27 20:30N 54°52' W 005°45'918.4
2018-May-27 20:00N 54°57' W 005°31'918.7
2018-May-27 19:30N 55°00' W 005°16'814.7
2018-May-27 19:00N 54°59' W 005°03'2 3.3
2018-May-27 18:29N 54°58' W 005°01'0 0.0
2018-May-27 17:53N 54°58' W 005°01'0 0.0
2018-May-27 17:30N 54°58' W 005°01'5 8.7
2018-May-27 16:55N 55°02' W 005°07'717.5
2018-May-27 16:30N 54°59' W 005°19'918.7
2018-May-27 16:00N 54°55' W 005°34'916.8
2018-May-27 15:28N 54°51' W 005°48'0 0.4
2018-May-27 14:57N 54°51' W 005°48'0 0.0
2018-May-27 14:27N 54°51' W 005°48'3 6.1
2018-May-27 14:00N 54°53' W 005°44'918.6
2018-May-27 13:30N 54°57' W 005°30'918.0
2018-May-27 13:00N 55°00' W 005°15'814.3
2018-May-27 12:29N 54°59' W 005°03'1 2.4
2018-May-27 11:53N 54°58' W 005°01'0 0.2
2018-May-27 11:30N 54°58' W 005°01'611.3
2018-May-27 11:00N 55°01' W 005°08'917.7
2018-May-27 10:30N 54°58' W 005°23'917.1
2018-May-27 10:00N 54°54' W 005°37'715.1
2018-May-27 09:30N 54°51' W 005°48'0 0.2
2018-May-27 08:55N 54°51' W 005°48'0 0.0
2018-May-27 08:23N 54°51' W 005°48'2 5.9
2018-May-27 08:00N 54°52' W 005°45'917.7
2018-May-27 07:30N 54°55' W 005°31'918.5
2018-May-27 07:00N 54°60' W 005°17'814.0
2018-May-27 06:26N 54°59' W 005°03'1 2.8
2018-May-27 05:54N 54°58' W 005°01'0 0.0
2018-May-27 05:21N 54°58' W 005°01'0 0.0
2018-May-27 05:00N 54°58' W 005°01'0 0.0
2018-May-27 04:30N 54°58' W 005°01'0 0.0
2018-May-27 04:00N 54°58' W 005°01'0 0.0
2018-May-27 03:27N 54°58' W 005°01'0 0.0
2018-May-27 03:00N 54°58' W 005°01'0 0.0
2018-May-27 02:30N 54°58' W 005°01'0 0.0
2018-May-27 02:00N 54°58' W 005°01'0 0.0
2018-May-27 01:24N 54°58' W 005°01'0 0.0
2018-May-27 01:00N 54°58' W 005°01'510.0
2018-May-27 00:30N 55°01' W 005°07'1019.7
2018-May-27 00:01N 54°58' W 005°22'1019.1
2018-May-26 23:30N 54°55' W 005°38'713.4
2018-May-26 23:00N 54°51' W 005°48'0 0.1
2018-May-26 22:28N 54°51' W 005°48'0 0.0
2018-May-26 21:58N 54°51' W 005°48'0 0.0
2018-May-26 21:28N 54°51' W 005°48'0 0.0
2018-May-26 20:58N 54°51' W 005°48'3 6.4
2018-May-26 20:30N 54°53' W 005°44'918.9
2018-May-26 20:00N 54°56' W 005°29'1019.3
2018-May-26 19:30N 55°01' W 005°13'713.4
2018-May-26 19:00N 54°59' W 005°02'1 0.9
2018-May-26 17:46N 54°58' W 005°01'0 0.0
2018-May-26 17:29N 54°58' W 005°01'510.6
2018-May-26 17:01N 55°02' W 005°07'917.5
2018-May-26 16:31N 54°58' W 005°21'919.0
2018-May-26 16:01N 54°54' W 005°36'815.0
2018-May-26 15:30N 54°51' W 005°48'0 0.1
2018-May-26 14:58N 54°51' W 005°48'0 0.0
2018-May-26 14:29N 54°51' W 005°48'510.1
2018-May-26 14:00N 54°53' W 005°41'918.3
2018-May-26 13:30N 54°57' W 005°26'918.0
2018-May-26 13:00N 55°01' W 005°12'714.0
2018-May-26 12:31N 54°58' W 005°01'0 0.2
2018-May-26 11:50N 54°58' W 005°01'0 0.0
2018-May-26 11:30N 54°58' W 005°01'5 9.5
2018-May-26 10:59N 55°02' W 005°06'1020.1
2018-May-26 10:30N 54°58' W 005°22'1019.8
2018-May-26 10:00N 54°54' W 005°38'713.4
2018-May-26 09:30N 54°51' W 005°48'0 0.0
2018-May-26 09:00N 54°51' W 005°48'0 0.0
2018-May-26 08:30N 54°51' W 005°48'3 6.6
2018-May-26 08:00N 54°53' W 005°43'918.0
2018-May-26 07:30N 54°56' W 005°29'918.3
2018-May-26 07:00N 55°01' W 005°15'714.4
2018-May-26 06:30N 54°59' W 005°03'2 1.5
2018-May-26 05:28N 54°58' W 005°01'0 0.1
2018-May-26 05:00N 54°58' W 005°01'611.3
2018-May-26 04:31N 55°01' W 005°08'917.1
2018-May-26 04:00N 54°58' W 005°22'918.1
2018-May-26 03:30N 54°54' W 005°36'714.9
2018-May-26 03:01N 54°51' W 005°48'0 0.2
2018-May-26 02:30N 54°51' W 005°48'0 0.0
2018-May-26 02:00N 54°51' W 005°48'0 0.0
2018-May-26 01:30N 54°51' W 005°48'0 0.0
2018-May-26 01:00N 54°51' W 005°48'3 6.8
2018-May-26 00:31N 54°53' W 005°43'918.7
2018-May-26 00:01N 54°57' W 005°29'917.7
2018-May-25 23:31N 55°01' W 005°15'714.1
2018-May-25 22:59N 54°59' W 005°02'1 0.7
2018-May-25 21:07N 54°58' W 005°01'0 0.3
2018-May-25 20:51N 54°58' W 005°01'612.7
2018-May-25 20:23N 55°01' W 005°09'717.4
2018-May-25 20:00N 54°58' W 005°19'917.4
2018-May-25 19:31N 54°54' W 005°33'917.7
2018-May-25 19:00N 54°51' W 005°48'1 1.0
2018-May-25 18:22N 54°51' W 005°48'0 0.0
2018-May-25 17:58N 54°51' W 005°48'0 0.0
2018-May-25 17:30N 54°51' W 005°48'5 9.7
2018-May-25 17:00N 54°54' W 005°41'1019.8
2018-May-25 16:30N 54°58' W 005°25'1020.5
2018-May-25 16:00N 55°01' W 005°09'611.6
2018-May-25 15:30N 54°58' W 005°01'0 0.0
2018-May-25 14:59N 54°58' W 005°01'0 0.0
2018-May-25 14:29N 54°58' W 005°01'5 8.0
2018-May-25 13:52N 55°02' W 005°06'718.9
2018-May-25 13:30N 54°59' W 005°18'1020.5
2018-May-25 13:00N 54°55' W 005°34'917.7
2018-May-25 12:30N 54°51' W 005°48'0 0.3
2018-May-25 12:00N 54°51' W 005°48'0 0.0
2018-May-25 11:30N 54°51' W 005°48'4 7.9
2018-May-25 11:01N 54°53' W 005°42'1020.8
2018-May-25 10:31N 54°58' W 005°26'1019.7
2018-May-25 10:00N 55°01' W 005°10'612.9
2018-May-25 09:30N 54°58' W 005°01'0 0.0
2018-May-25 08:55N 54°58' W 005°01'0 0.0
2018-May-25 08:29N 54°58' W 005°01'4 9.0
2018-May-25 08:00N 55°01' W 005°05'816.6
2018-May-25 07:30N 54°59' W 005°19'817.0
2018-May-25 07:00N 54°55' W 005°32'918.2
2018-May-25 06:30N 54°52' W 005°47'1 2.4
2018-May-25 05:58N 54°51' W 005°48'0 0.0
2018-May-25 05:28N 54°51' W 005°48'0 0.0
2018-May-25 04:59N 54°51' W 005°48'4 8.9
2018-May-25 04:30N 54°53' W 005°41'918.0
2018-May-25 04:00N 54°57' W 005°28'1018.8
2018-May-25 03:30N 55°01' W 005°13'713.4
2018-May-25 03:01N 54°59' W 005°02'1 2.3
2018-May-25 02:29N 54°58' W 005°01'0 0.0
2018-May-25 01:47N 54°58' W 005°01'0 0.0
2018-May-25 01:29N 54°58' W 005°01'0 0.0
2018-May-25 01:00N 54°58' W 005°01'5 9.7
2018-May-25 00:29N 55°02' W 005°07'917.8
2018-May-25 00:00N 54°58' W 005°20'918.0
2018-May-24 23:30N 54°55' W 005°35'816.4
2018-May-24 23:00N 54°51' W 005°48'0 0.3
2018-May-24 22:30N 54°51' W 005°48'0 0.0
2018-May-24 22:00N 54°51' W 005°48'0 0.0
2018-May-24 21:30N 54°51' W 005°48'0 0.0
2018-May-24 21:00N 54°51' W 005°48'2 4.0
2018-May-24 20:30N 54°52' W 005°46'918.7
2018-May-24 20:00N 54°56' W 005°31'918.6
2018-May-24 19:30N 55°00' W 005°16'814.6
2018-May-24 18:59N 54°59' W 005°03'2 3.8
2018-May-24 18:29N 54°58' W 005°01'0 0.0
2018-May-24 17:56N 54°58' W 005°01'0 0.0
2018-May-24 17:30N 54°58' W 005°01'5 9.1
2018-May-24 16:56N 55°02' W 005°07'819.0
2018-May-24 16:31N 54°58' W 005°20'1020.6
2018-May-24 16:01N 54°54' W 005°36'714.6
2018-May-24 15:30N 54°51' W 005°48'0 0.1
2018-May-24 14:59N 54°51' W 005°48'0 0.0
2018-May-24 14:30N 54°51' W 005°48'510.4
2018-May-24 14:00N 54°54' W 005°41'918.1
2018-May-24 13:30N 54°58' W 005°27'14 3.0
2018-May-24 08:53N 54°51' W 005°48'0 0.0
2018-May-24 08:26N 54°51' W 005°48'3 7.1
2018-May-24 08:00N 54°53' W 005°44'918.5
2018-May-24 07:30N 54°57' W 005°29'918.1
2018-May-24 07:00N 55°00' W 005°15'714.1
2018-May-24 06:29N 54°59' W 005°03'2 1.2
2018-May-24 05:16N 54°58' W 005°01'0 0.0
2018-May-24 04:59N 54°58' W 005°01'510.7
2018-May-24 04:30N 55°01' W 005°07'817.0
2018-May-24 04:00N 54°58' W 005°20'918.4
2018-May-24 03:30N 54°53' W 005°34'816.1
2018-May-24 03:01N 54°51' W 005°48'0 0.1
2018-May-24 02:19N 54°51' W 005°48'0 0.0
2018-May-24 01:58N 54°51' W 005°48'0 0.0
2018-May-24 01:25N 54°51' W 005°48'0 0.0
2018-May-24 00:59N 54°51' W 005°48'3 6.0
2018-May-24 00:30N 54°53' W 005°44'917.6
2018-May-24 00:00N 54°57' W 005°30'917.7
2018-May-23 23:30N 55°00' W 005°16'814.3
2018-May-23 22:57N 54°59' W 005°02'1 0.9
2018-May-23 21:19N 54°58' W 005°01'0 0.0
2018-May-23 21:00N 54°58' W 005°01'510.0
2018-May-23 20:30N 55°02' W 005°06'1019.8
2018-May-23 20:00N 54°58' W 005°22'1019.7
2018-May-23 19:30N 54°54' W 005°38'612.7
2018-May-23 19:00N 54°51' W 005°48'0 0.1
2018-May-23 18:28N 54°51' W 005°48'0 0.0
2018-May-23 17:55N 54°51' W 005°48'0 0.0
2018-May-23 17:30N 54°51' W 005°48'612.0
2018-May-23 17:00N 54°54' W 005°39'917.8
2018-May-23 16:30N 54°58' W 005°25'1019.0
2018-May-23 16:00N 55°01' W 005°09'6 8.9
2018-May-23 15:19N 54°58' W 005°01'0 0.0
2018-May-23 14:31N 54°58' W 005°01'0 0.0
2018-May-23 14:30N 54°58' W 005°01'5 9.1
2018-May-23 13:54N 55°01' W 005°08'819.2
2018-May-23 13:30N 54°58' W 005°20'918.4
2018-May-23 13:00N 54°55' W 005°34'816.8
2018-May-23 12:30N 54°51' W 005°48'0 0.3
2018-May-23 11:45N 54°51' W 005°48'0 0.0
2018-May-23 11:27N 54°51' W 005°48'3 7.2
2018-May-23 11:01N 54°53' W 005°43'918.4
2018-May-23 10:30N 54°57' W 005°29'918.0
2018-May-23 10:01N 55°01' W 005°15'713.9
2018-May-23 09:30N 54°59' W 005°03'2 1.3
2018-May-23 08:18N 54°58' W 005°01'411.5
2018-May-23 08:00N 55°01' W 005°04'816.7
2018-May-23 07:30N 54°59' W 005°18'917.8
2018-May-23 07:00N 54°55' W 005°32'917.6
2018-May-23 06:29N 54°52' W 005°47'1 1.9
2018-May-23 05:59N 54°51' W 005°48'0 0.0
2018-May-23 05:29N 54°51' W 005°48'0 0.0
2018-May-23 05:00N 54°51' W 005°48'5 9.7
2018-May-23 04:30N 54°53' W 005°41'918.5
2018-May-23 04:00N 54°58' W 005°26'918.8
2018-May-23 03:30N 55°01' W 005°11'713.6
2018-May-23 03:00N 54°58' W 005°01'0 0.0
2018-May-23 01:56N 54°58' W 005°01'0 0.0
2018-May-23 01:20N 54°58' W 005°01'0 0.0
2018-May-23 00:58N 54°58' W 005°01'510.5
2018-May-23 00:28N 55°01' W 005°08'817.9
2018-May-23 00:00N 54°58' W 005°20'918.6
2018-May-22 23:30N 54°54' W 005°35'815.9
2018-May-22 23:01N 54°51' W 005°48'0 0.2
2018-May-22 22:28N 54°51' W 005°48'0 0.0
2018-May-22 21:58N 54°51' W 005°48'0 0.0
2018-May-22 21:22N 54°51' W 005°48'0 0.0
2018-May-22 20:53N 54°51' W 005°48'410.4
2018-May-22 20:31N 54°53' W 005°42'919.0
2018-May-22 20:00N 54°58' W 005°28'918.3
2018-May-22 19:31N 55°01' W 005°13'612.7
2018-May-22 19:00N 54°59' W 005°02'1 2.3
2018-May-22 18:24N 54°58' W 005°01'0 0.0
2018-May-22 17:57N 54°58' W 005°01'0 0.0
2018-May-22 17:29N 54°58' W 005°01'5 9.8
2018-May-22 16:58N 55°02' W 005°07'919.7
2018-May-22 16:30N 54°58' W 005°21'1020.1
2018-May-22 16:00N 54°54' W 005°37'711.7
2018-May-22 15:26N 54°51' W 005°48'0 0.0
2018-May-22 15:00N 54°51' W 005°48'0 0.0
2018-May-22 14:30N 54°51' W 005°48'4 8.2
2018-May-22 14:00N 54°53' W 005°42'917.8
2018-May-22 13:30N 54°57' W 005°28'918.4
2018-May-22 13:00N 55°01' W 005°13'713.1
2018-May-22 12:30N 54°59' W 005°02'1 2.0
2018-May-22 11:53N 54°58' W 005°01'0 0.0
2018-May-22 11:30N 54°58' W 005°01'5 9.4
2018-May-22 10:57N 55°02' W 005°07'817.4
2018-May-22 10:30N 54°59' W 005°20'918.3
2018-May-22 10:00N 54°55' W 005°34'917.0
2018-May-22 09:30N 54°51' W 005°48'0 0.9
2018-May-22 09:00N 54°51' W 005°48'0 0.0
2018-May-22 08:30N 54°51' W 005°48'3 6.6
2018-May-22 08:00N 54°53' W 005°43'918.5
2018-May-22 07:30N 54°57' W 005°29'917.8
2018-May-22 07:00N 55°01' W 005°15'714.2
2018-May-22 06:29N 54°59' W 005°03'1 2.8
2018-May-22 05:59N 54°58' W 005°01'0 0.0
2018-May-22 05:17N 54°58' W 005°01'0 0.0
2018-May-22 05:00N 54°58' W 005°01'510.2
2018-May-22 04:29N 55°02' W 005°07'816.3
2018-May-22 04:00N 54°58' W 005°20'917.7
2018-May-22 03:30N 54°55' W 005°34'917.1
2018-May-22 03:00N 54°51' W 005°48'0 0.7
2018-May-22 02:29N 54°51' W 005°48'0 0.0
2018-May-22 01:59N 54°51' W 005°48'0 0.0
2018-May-22 01:29N 54°51' W 005°48'0 0.0
2018-May-22 01:00N 54°51' W 005°48'4 8.5
2018-May-22 00:30N 54°53' W 005°41'917.9
2018-May-22 00:00N 54°57' W 005°28'918.5
2018-May-21 23:30N 55°01' W 005°13'613.0
2018-May-21 23:00N 54°59' W 005°02'1 2.6
2018-May-21 22:30N 54°58' W 005°01'0 0.0
2018-May-21 21:51N 54°58' W 005°01'0 0.0
2018-May-21 21:12N 54°58' W 005°01'0 0.3
2018-May-21 21:00N 54°58' W 005°01'510.2
2018-May-21 20:30N 55°01' W 005°07'917.6
2018-May-21 20:00N 54°58' W 005°21'1117.6
2018-May-21 19:21N 54°54' W 005°40'515.3
2018-May-21 19:00N 54°51' W 005°48'0 0.3
2018-May-21 18:26N 54°51' W 005°48'0 0.0
2018-May-21 17:59N 54°51' W 005°48'0 0.0
2018-May-21 17:29N 54°51' W 005°48'3 7.2
2018-May-21 17:01N 54°53' W 005°43'918.5
2018-May-21 16:31N 54°57' W 005°29'918.1
2018-May-21 16:00N 55°01' W 005°14'714.0
2018-May-21 15:30N 54°59' W 005°03'1 2.1
2018-May-21 14:48N 54°58' W 005°01'0 0.1
2018-May-21 14:27N 54°58' W 005°01'612.4
2018-May-21 13:59N 55°02' W 005°08'1020.4
2018-May-21 13:30N 54°57' W 005°23'1121.7
2018-May-21 13:00N 54°53' W 005°41'5 9.2
2018-May-21 12:30N 54°51' W 005°48'0 0.0
2018-May-21 12:00N 54°51' W 005°48'0 0.0
2018-May-21 11:31N 54°51' W 005°48'611.3
2018-May-21 11:01N 54°54' W 005°40'917.8
2018-May-21 10:31N 54°58' W 005°26'918.2
2018-May-21 10:00N 55°03' W 005°12'714.8
2018-May-21 09:30N 54°58' W 005°02'1 1.2
2018-May-21 09:00N 54°58' W 005°01'0 0.0
2018-May-21 08:30N 54°58' W 005°01'5 8.7
2018-May-21 07:56N 55°02' W 005°06'817.8
2018-May-21 07:30N 54°59' W 005°19'917.9
2018-May-21 07:00N 54°56' W 005°33'917.5
2018-May-21 06:30N 54°52' W 005°47'1 2.0
2018-May-21 06:00N 54°51' W 005°48'0 0.0
2018-May-21 05:30N 54°51' W 005°48'0 0.0
2018-May-21 05:00N 54°51' W 005°48'5 8.2
2018-May-21 04:27N 54°54' W 005°42'818.3
2018-May-21 04:00N 54°57' W 005°29'917.9
2018-May-21 03:30N 55°01' W 005°15'714.2
2018-May-21 02:59N 54°59' W 005°02'1 0.7
2018-May-21 00:57N 54°58' W 005°01'510.6
2018-May-21 00:28N 55°01' W 005°07'817.3
2018-May-21 00:00N 54°58' W 005°20'918.8
2018-May-20 23:30N 54°54' W 005°34'816.6
2018-May-20 23:00N 54°51' W 005°48'0 0.2
2018-May-20 22:30N 54°51' W 005°48'0 0.0
2018-May-20 22:00N 54°51' W 005°48'0 0.0
2018-May-20 21:30N 54°51' W 005°48'0 0.0
2018-May-20 21:00N 54°51' W 005°48'3 5.3
2018-May-20 20:30N 54°53' W 005°44'918.3
2018-May-20 20:00N 54°57' W 005°30'917.6
2018-May-20 19:30N 55°00' W 005°16'814.8
2018-May-20 18:58N 54°59' W 005°03'1 2.5
2018-May-20 18:23N 54°58' W 005°01'0 0.0
2018-May-20 17:56N 54°58' W 005°01'0 0.0
2018-May-20 17:30N 54°58' W 005°01'510.6
2018-May-20 17:00N 55°02' W 005°07'1121.9
2018-May-20 16:30N 54°57' W 005°24'1121.2
2018-May-20 16:00N 54°53' W 005°41'4 8.3
2018-May-20 15:29N 54°51' W 005°48'0 0.0
2018-May-20 14:56N 54°51' W 005°48'0 0.0
2018-May-20 14:29N 54°51' W 005°48'3 6.0
2018-May-20 14:00N 54°53' W 005°44'918.1
2018-May-20 13:30N 54°57' W 005°30'918.1
2018-May-20 13:00N 55°00' W 005°16'813.9
2018-May-20 12:27N 54°59' W 005°03'1 3.0
2018-May-20 11:59N 54°58' W 005°01'0 0.0
2018-May-20 10:02N 54°58' W 005°01'0 0.0
2018-May-20 09:47N 54°58' W 005°01'0 0.0
2018-May-20 09:29N 54°58' W 005°01'0 0.0
2018-May-20 08:56N 54°58' W 005°01'0 0.0
2018-May-20 08:29N 54°58' W 005°01'510.1
2018-May-20 08:00N 55°02' W 005°06'919.2
2018-May-20 07:30N 54°58' W 005°21'1020.4
2018-May-20 07:00N 54°54' W 005°38'713.3
2018-May-20 06:30N 54°51' W 005°48'0 0.1
2018-May-20 06:00N 54°51' W 005°48'0 0.0
2018-May-20 05:30N 54°51' W 005°48'0 0.0
2018-May-20 04:57N 54°51' W 005°48'0 0.0
2018-May-20 04:30N 54°51' W 005°48'0 0.0
2018-May-20 04:00N 54°51' W 005°48'0 0.0
2018-May-20 03:30N 54°51' W 005°48'0 0.0
2018-May-20 03:00N 54°51' W 005°48'0 0.0
2018-May-20 02:30N 54°51' W 005°48'0 0.0
2018-May-20 02:00N 54°51' W 005°48'0 0.0
2018-May-20 01:30N 54°51' W 005°48'0 0.0
2018-May-20 01:00N 54°51' W 005°48'0 0.0
2018-May-20 00:30N 54°51' W 005°48'0 0.0
2018-May-20 00:00N 54°51' W 005°48'0 0.0
2018-May-19 23:27N 54°51' W 005°48'0 0.0
2018-May-19 23:00N 54°51' W 005°48'0 0.0
2018-May-19 22:30N 54°51' W 005°48'0 0.0
2018-May-19 22:00N 54°51' W 005°48'0 0.0
2018-May-19 21:30N 54°51' W 005°48'0 0.0
2018-May-19 20:57N 54°51' W 005°48'3 7.4
2018-May-19 20:30N 54°53' W 005°43'918.2
2018-May-19 20:00N 54°57' W 005°29'918.3
2018-May-19 19:30N 55°01' W 005°15'714.6
2018-May-19 19:00N 54°59' W 005°02'1 2.1
2018-May-19 18:24N 54°58' W 005°01'0 0.0
2018-May-19 18:00N 54°58' W 005°01'0 0.0
2018-May-19 17:30N 54°58' W 005°01'5 9.0
2018-May-19 16:57N 55°02' W 005°07'818.9
2018-May-19 16:30N 54°58' W 005°20'918.0
2018-May-19 16:00N 54°55' W 005°35'816.3
2018-May-19 15:30N 54°51' W 005°48'0 0.6
2018-May-19 14:59N 54°51' W 005°48'0 0.0
2018-May-19 14:30N 54°51' W 005°48'5 9.3
2018-May-19 14:00N 54°53' W 005°41'816.2
2018-May-19 13:30N 54°57' W 005°29'816.5
2018-May-19 13:00N 55°01' W 005°17'915.2
2018-May-19 12:25N 54°58' W 005°02'1 1.9
2018-May-19 11:55N 54°58' W 005°01'0 0.0
2018-May-19 11:30N 54°58' W 005°01'5 9.6
2018-May-19 11:00N 55°02' W 005°06'816.7
2018-May-19 10:31N 54°58' W 005°19'917.7
2018-May-19 10:00N 54°54' W 005°33'917.6
2018-May-19 09:30N 54°51' W 005°48'1 1.2
2018-May-19 09:01N 54°51' W 005°48'0 0.0
2018-May-19 08:30N 54°51' W 005°48'510.3
2018-May-19 08:00N 54°54' W 005°41'917.8
2018-May-19 07:30N 54°58' W 005°27'918.5
2018-May-19 07:00N 55°03' W 005°13'815.2
2018-May-19 06:30N 54°59' W 005°02'1 2.1
2018-May-19 06:00N 54°58' W 005°01'0 0.0
2018-May-19 05:28N 54°58' W 005°01'0 0.1
2018-May-19 05:00N 54°58' W 005°01'511.0
2018-May-19 04:30N 55°01' W 005°08'1019.2
2018-May-19 04:00N 54°58' W 005°23'918.4
2018-May-19 03:30N 54°53' W 005°37'713.2
2018-May-19 03:00N 54°51' W 005°48'0 0.1
2018-May-19 02:29N 54°51' W 005°48'0 0.0
2018-May-19 01:59N 54°51' W 005°48'0 0.0
2018-May-19 01:26N 54°51' W 005°48'0 0.0
2018-May-19 00:59N 54°51' W 005°48'4 9.0
2018-May-19 00:30N 54°53' W 005°42'918.8
2018-May-19 00:00N 54°57' W 005°27'1019.3
2018-May-18 23:30N 55°01' W 005°12'713.2
2018-May-18 23:01N 54°58' W 005°02'1 1.0
2018-May-18 22:27N 54°58' W 005°01'0 0.0
2018-May-18 21:51N 54°58' W 005°01'0 0.0
2018-May-18 21:21N 54°58' W 005°01'0 0.0
2018-May-18 21:00N 54°58' W 005°01'510.2
2018-May-18 20:30N 55°01' W 005°07'817.4
2018-May-18 20:01N 54°58' W 005°21'918.9
2018-May-18 19:31N 54°54' W 005°36'815.5
2018-May-18 19:01N 54°51' W 005°48'0 0.2
2018-May-18 18:30N 54°51' W 005°48'0 0.0
2018-May-18 18:00N 54°51' W 005°48'0 0.0
2018-May-18 17:30N 54°51' W 005°48'5 9.4
2018-May-18 17:00N 54°53' W 005°41'918.4
2018-May-18 16:31N 54°58' W 005°27'917.6
2018-May-18 16:00N 55°01' W 005°13'714.2
2018-May-18 15:31N 54°58' W 005°01'0 0.8
2018-May-18 14:59N 54°58' W 005°01'0 0.0
2018-May-18 14:29N 54°58' W 005°01'5 8.9
2018-May-18 13:55N 55°01' W 005°07'819.0
2018-May-18 13:30N 54°58' W 005°19'918.6
2018-May-18 13:00N 54°55' W 005°34'917.0
2018-May-18 12:30N 54°51' W 005°48'0 0.3
2018-May-18 11:58N 54°51' W 005°48'0 0.0
2018-May-18 11:29N 54°51' W 005°48'611.8
2018-May-18 11:01N 54°54' W 005°40'1020.7
2018-May-18 10:30N 54°58' W 005°23'1121.2
2018-May-18 10:01N 55°02' W 005°06'5 9.8
2018-May-18 09:30N 54°58' W 005°01'0 0.0
2018-May-18 08:57N 54°58' W 005°01'0 0.0
2018-May-18 08:30N 54°58' W 005°01'510.4
2018-May-18 07:59N 55°01' W 005°08'917.8
2018-May-18 07:30N 54°58' W 005°21'918.8
2018-May-18 07:00N 54°54' W 005°36'714.8
2018-May-18 06:31N 54°51' W 005°48'0 0.2
2018-May-18 06:00N 54°51' W 005°48'0 0.0
2018-May-18 05:30N 54°51' W 005°48'0 0.0
2018-May-18 05:00N 54°51' W 005°48'612.2
2018-May-18 04:31N 54°54' W 005°39'918.3
2018-May-18 04:00N 54°59' W 005°25'917.5
2018-May-18 03:31N 55°02' W 005°11'713.5
2018-May-18 03:00N 54°58' W 005°01'0 0.0
2018-May-18 02:30N 54°58' W 005°01'0 0.0
2018-May-18 02:00N 54°58' W 005°01'0 0.0
2018-May-18 01:25N 54°58' W 005°01'0 0.2
2018-May-18 01:00N 54°58' W 005°01'  

Dump ship's entire track history